sensor_id;sensor_type;location;lat;lon;timestamp;temperature;humidity
26954;DHT22;14508;50.924;11.600;2023-07-29T00:01:23;20.20;99.90
26954;DHT22;14508;50.924;11.600;2023-07-29T00:03:51;20.20;99.90
26954;DHT22;14508;50.924;11.600;2023-07-29T00:06:19;20.20;99.90
26954;DHT22;14508;50.924;11.600;2023-07-29T00:08:48;20.10;99.90
26954;DHT22;14508;50.924;11.600;2023-07-29T00:11:16;20.20;99.90
26954;DHT22;14508;50.924;11.600;2023-07-29T00:13:44;20.20;99.90
26954;DHT22;14508;50.924;11.600;2023-07-29T00:16:12;20.10;99.90
26954;DHT22;14508;50.924;11.600;2023-07-29T00:18:43;20.10;99.90
26954;DHT22;14508;50.924;11.600;2023-07-29T00:21:11;20.10;99.90
26954;DHT22;14508;50.924;11.600;2023-07-29T00:23:39;20.10;99.90
26954;DHT22;14508;50.924;11.600;2023-07-29T00:26:07;20.00;99.90
26954;DHT22;14508;50.924;11.600;2023-07-29T00:28:35;20.00;99.90
26954;DHT22;14508;50.924;11.600;2023-07-29T00:31:04;20.00;99.90
26954;DHT22;14508;50.924;11.600;2023-07-29T00:33:33;20.00;99.90
26954;DHT22;14508;50.924;11.600;2023-07-29T00:36:03;20.00;99.90
26954;DHT22;14508;50.924;11.600;2023-07-29T00:38:31;20.10;99.90
26954;DHT22;14508;50.924;11.600;2023-07-29T00:41:00;20.10;99.90
26954;DHT22;14508;50.924;11.600;2023-07-29T00:43:29;20.10;99.90
26954;DHT22;14508;50.924;11.600;2023-07-29T00:45:57;20.10;99.90
26954;DHT22;14508;50.924;11.600;2023-07-29T00:48:26;20.10;99.90
26954;DHT22;14508;50.924;11.600;2023-07-29T00:50:55;20.10;99.90
26954;DHT22;14508;50.924;11.600;2023-07-29T00:53:24;20.10;99.90
26954;DHT22;14508;50.924;11.600;2023-07-29T00:55:53;20.10;99.90
26954;DHT22;14508;50.924;11.600;2023-07-29T00:58:21;20.10;99.90
26954;DHT22;14508;50.924;11.600;2023-07-29T01:00:50;20.10;99.90
26954;DHT22;14508;50.924;11.600;2023-07-29T01:03:18;20.10;99.90
26954;DHT22;14508;50.924;11.600;2023-07-29T01:05:54;20.10;99.90
26954;DHT22;14508;50.924;11.600;2023-07-29T01:08:31;20.10;99.90
26954;DHT22;14508;50.924;11.600;2023-07-29T01:11:07;20.10;99.90
26954;DHT22;14508;50.924;11.600;2023-07-29T01:13:45;20.10;99.90
26954;DHT22;14508;50.924;11.600;2023-07-29T01:16:20;20.10;99.90
26954;DHT22;14508;50.924;11.600;2023-07-29T01:18:50;20.10;99.90
26954;DHT22;14508;50.924;11.600;2023-07-29T01:21:21;20.10;99.90
26954;DHT22;14508;50.924;11.600;2023-07-29T01:23:53;20.10;99.90
26954;DHT22;14508;50.924;11.600;2023-07-29T01:26:25;20.10;99.90
26954;DHT22;14508;50.924;11.600;2023-07-29T01:28:55;20.10;99.90
26954;DHT22;14508;50.924;11.600;2023-07-29T01:31:30;20.10;99.90
26954;DHT22;14508;50.924;11.600;2023-07-29T01:34:06;20.10;99.90
26954;DHT22;14508;50.924;11.600;2023-07-29T01:36:37;20.10;99.90
26954;DHT22;14508;50.924;11.600;2023-07-29T01:39:09;20.00;99.90
26954;DHT22;14508;50.924;11.600;2023-07-29T01:41:39;20.00;99.90
26954;DHT22;14508;50.924;11.600;2023-07-29T01:44:07;20.00;99.90
26954;DHT22;14508;50.924;11.600;2023-07-29T01:46:38;20.00;99.90
26954;DHT22;14508;50.924;11.600;2023-07-29T01:49:06;20.00;99.90
26954;DHT22;14508;50.924;11.600;2023-07-29T01:51:34;20.00;99.90
26954;DHT22;14508;50.924;11.600;2023-07-29T01:54:02;20.00;99.90
26954;DHT22;14508;50.924;11.600;2023-07-29T01:56:32;19.90;99.90
26954;DHT22;14508;50.924;11.600;2023-07-29T01:59:01;20.00;99.90
26954;DHT22;14508;50.924;11.600;2023-07-29T02:05:42;19.90;99.90
26954;DHT22;14508;50.924;11.600;2023-07-29T02:08:11;19.80;99.90
26954;DHT22;14508;50.924;11.600;2023-07-29T02:10:40;19.80;99.90
26954;DHT22;14508;50.924;11.600;2023-07-29T02:13:13;19.80;99.90
26954;DHT22;14508;50.924;11.600;2023-07-29T02:15:41;19.70;99.90
26954;DHT22;14508;50.924;11.600;2023-07-29T02:18:09;19.70;99.90
26954;DHT22;14508;50.924;11.600;2023-07-29T02:20:37;19.60;99.90
26954;DHT22;14508;50.924;11.600;2023-07-29T02:23:05;19.60;99.90
26954;DHT22;14508;50.924;11.600;2023-07-29T02:25:35;19.50;99.90
26954;DHT22;14508;50.924;11.600;2023-07-29T02:28:03;19.50;99.90
26954;DHT22;14508;50.924;11.600;2023-07-29T02:30:36;19.50;99.90
26954;DHT22;14508;50.924;11.600;2023-07-29T02:33:04;19.50;99.90
26954;DHT22;14508;50.924;11.600;2023-07-29T02:35:32;19.50;99.90
26954;DHT22;14508;50.924;11.600;2023-07-29T02:38:00;19.50;99.90
26954;DHT22;14508;50.924;11.600;2023-07-29T02:40:28;19.40;99.90
26954;DHT22;14508;50.924;11.600;2023-07-29T02:42:56;19.40;99.90
26954;DHT22;14508;50.924;11.600;2023-07-29T02:45:24;19.40;99.90
26954;DHT22;14508;50.924;11.600;2023-07-29T02:47:54;19.40;99.90
26954;DHT22;14508;50.924;11.600;2023-07-29T02:50:22;19.30;99.90
26954;DHT22;14508;50.924;11.600;2023-07-29T02:52:50;19.30;99.90
26954;DHT22;14508;50.924;11.600;2023-07-29T02:55:18;19.30;99.90
26954;DHT22;14508;50.924;11.600;2023-07-29T02:57:46;19.20;99.90
26954;DHT22;14508;50.924;11.600;2023-07-29T03:00:15;19.20;99.90
26954;DHT22;14508;50.924;11.600;2023-07-29T03:02:43;19.20;99.90
26954;DHT22;14508;50.924;11.600;2023-07-29T03:05:12;19.10;99.90
26954;DHT22;14508;50.924;11.600;2023-07-29T03:07:41;19.10;99.90
26954;DHT22;14508;50.924;11.600;2023-07-29T03:10:10;19.10;99.90
26954;DHT22;14508;50.924;11.600;2023-07-29T03:12:38;19.00;99.90
26954;DHT22;14508;50.924;11.600;2023-07-29T03:15:07;19.00;99.90
26954;DHT22;14508;50.924;11.600;2023-07-29T03:17:35;19.00;99.90
26954;DHT22;14508;50.924;11.600;2023-07-29T03:20:04;18.90;99.90
26954;DHT22;14508;50.924;11.600;2023-07-29T03:22:33;18.90;99.90
26954;DHT22;14508;50.924;11.600;2023-07-29T03:25:01;18.80;99.90
26954;DHT22;14508;50.924;11.600;2023-07-29T03:27:30;18.80;99.90
26954;DHT22;14508;50.924;11.600;2023-07-29T03:29:58;18.70;99.90
26954;DHT22;14508;50.924;11.600;2023-07-29T03:32:26;18.70;99.90
26954;DHT22;14508;50.924;11.600;2023-07-29T03:34:54;18.60;99.90
26954;DHT22;14508;50.924;11.600;2023-07-29T03:37:22;18.50;99.90
26954;DHT22;14508;50.924;11.600;2023-07-29T03:39:52;18.50;99.90
26954;DHT22;14508;50.924;11.600;2023-07-29T03:42:20;18.50;99.90
26954;DHT22;14508;50.924;11.600;2023-07-29T03:44:47;18.50;99.90
26954;DHT22;14508;50.924;11.600;2023-07-29T03:47:15;18.40;99.90
26954;DHT22;14508;50.924;11.600;2023-07-29T03:49:43;18.40;99.90
26954;DHT22;14508;50.924;11.600;2023-07-29T03:52:12;18.40;99.90
26954;DHT22;14508;50.924;11.600;2023-07-29T03:54:40;18.40;99.90
26954;DHT22;14508;50.924;11.600;2023-07-29T03:57:10;18.30;99.90
26954;DHT22;14508;50.924;11.600;2023-07-29T03:59:38;18.30;99.90
26954;DHT22;14508;50.924;11.600;2023-07-29T04:02:06;18.30;99.90
26954;DHT22;14508;50.924;11.600;2023-07-29T04:04:34;18.30;99.90
26954;DHT22;14508;50.924;11.600;2023-07-29T04:07:02;18.20;99.90
26954;DHT22;14508;50.924;11.600;2023-07-29T04:09:30;18.20;99.90
26954;DHT22;14508;50.924;11.600;2023-07-29T04:11:58;18.20;99.90
26954;DHT22;14508;50.924;11.600;2023-07-29T04:14:28;18.20;99.90
26954;DHT22;14508;50.924;11.600;2023-07-29T04:16:56;18.20;99.90
26954;DHT22;14508;50.924;11.600;2023-07-29T04:19:24;18.20;99.90
26954;DHT22;14508;50.924;11.600;2023-07-29T04:21:52;18.10;99.90
26954;DHT22;14508;50.924;11.600;2023-07-29T04:24:20;18.10;99.90
26954;DHT22;14508;50.924;11.600;2023-07-29T04:26:50;18.10;99.90
26954;DHT22;14508;50.924;11.600;2023-07-29T04:29:18;18.10;99.90
26954;DHT22;14508;50.924;11.600;2023-07-29T04:31:47;18.10;99.90
26954;DHT22;14508;50.924;11.600;2023-07-29T04:34:15;18.10;99.90
26954;DHT22;14508;50.924;11.600;2023-07-29T04:36:43;18.10;99.90
26954;DHT22;14508;50.924;11.600;2023-07-29T04:39:11;18.00;99.90
26954;DHT22;14508;50.924;11.600;2023-07-29T04:41:39;18.00;99.90
26954;DHT22;14508;50.924;11.600;2023-07-29T04:44:07;18.00;99.90
26954;DHT22;14508;50.924;11.600;2023-07-29T04:46:36;18.00;99.90
26954;DHT22;14508;50.924;11.600;2023-07-29T04:49:06;18.00;99.90
26954;DHT22;14508;50.924;11.600;2023-07-29T04:51:34;18.00;99.90
26954;DHT22;14508;50.924;11.600;2023-07-29T04:54:03;18.00;99.90
26954;DHT22;14508;50.924;11.600;2023-07-29T04:56:32;18.00;99.90
26954;DHT22;14508;50.924;11.600;2023-07-29T04:59:00;18.00;99.90
26954;DHT22;14508;50.924;11.600;2023-07-29T05:01:28;18.00;99.90
26954;DHT22;14508;50.924;11.600;2023-07-29T05:03:56;18.00;99.90
26954;DHT22;14508;50.924;11.600;2023-07-29T05:06:25;18.00;99.90
26954;DHT22;14508;50.924;11.600;2023-07-29T05:08:56;18.10;99.90
26954;DHT22;14508;50.924;11.600;2023-07-29T05:11:24;18.20;99.90
26954;DHT22;14508;50.924;11.600;2023-07-29T05:13:52;18.20;99.90
26954;DHT22;14508;50.924;11.600;2023-07-29T05:16:20;18.30;99.90
26954;DHT22;14508;50.924;11.600;2023-07-29T05:18:48;18.40;99.90
26954;DHT22;14508;50.924;11.600;2023-07-29T05:21:16;18.60;99.90
26954;DHT22;14508;50.924;11.600;2023-07-29T05:23:46;18.80;99.90
26954;DHT22;14508;50.924;11.600;2023-07-29T05:26:14;19.00;99.90
26954;DHT22;14508;50.924;11.600;2023-07-29T05:28:42;19.30;99.90
26954;DHT22;14508;50.924;11.600;2023-07-29T05:31:10;19.60;99.90
26954;DHT22;14508;50.924;11.600;2023-07-29T05:33:38;19.80;99.90
26954;DHT22;14508;50.924;11.600;2023-07-29T05:36:06;20.00;99.90
26954;DHT22;14508;50.924;11.600;2023-07-29T05:38:34;20.20;99.90
26954;DHT22;14508;50.924;11.600;2023-07-29T05:41:04;20.40;99.90
26954;DHT22;14508;50.924;11.600;2023-07-29T05:43:32;20.60;99.90
26954;DHT22;14508;50.924;11.600;2023-07-29T05:46:00;20.80;99.90
26954;DHT22;14508;50.924;11.600;2023-07-29T05:48:28;20.90;99.90
26954;DHT22;14508;50.924;11.600;2023-07-29T05:50:56;21.00;99.90
26954;DHT22;14508;50.924;11.600;2023-07-29T05:53:25;21.10;99.90
26954;DHT22;14508;50.924;11.600;2023-07-29T05:55:53;21.30;99.90
26954;DHT22;14508;50.924;11.600;2023-07-29T05:58:23;21.30;99.90
26954;DHT22;14508;50.924;11.600;2023-07-29T06:00:51;21.40;99.90
26954;DHT22;14508;50.924;11.600;2023-07-29T06:03:19;21.40;99.90
26954;DHT22;14508;50.924;11.600;2023-07-29T06:05:50;21.40;99.90
26954;DHT22;14508;50.924;11.600;2023-07-29T06:08:21;21.30;99.90
26954;DHT22;14508;50.924;11.600;2023-07-29T06:10:49;21.30;99.90
26954;DHT22;14508;50.924;11.600;2023-07-29T06:13:17;21.40;99.90
26954;DHT22;14508;50.924;11.600;2023-07-29T06:15:46;21.40;99.90
26954;DHT22;14508;50.924;11.600;2023-07-29T06:18:14;21.40;99.90
26954;DHT22;14508;50.924;11.600;2023-07-29T06:20:42;21.50;99.90
26954;DHT22;14508;50.924;11.600;2023-07-29T06:23:10;21.60;99.90
26954;DHT22;14508;50.924;11.600;2023-07-29T06:25:38;21.70;99.90
26954;DHT22;14508;50.924;11.600;2023-07-29T06:28:06;21.80;99.90
26954;DHT22;14508;50.924;11.600;2023-07-29T06:30:34;21.80;99.90
26954;DHT22;14508;50.924;11.600;2023-07-29T06:33:04;21.90;99.90
26954;DHT22;14508;50.924;11.600;2023-07-29T06:35:32;22.00;99.90
26954;DHT22;14508;50.924;11.600;2023-07-29T06:38:00;22.10;99.90
26954;DHT22;14508;50.924;11.600;2023-07-29T06:40:28;22.20;99.90
26954;DHT22;14508;50.924;11.600;2023-07-29T06:42:56;22.30;99.90
26954;DHT22;14508;50.924;11.600;2023-07-29T06:45:24;22.40;99.90
26954;DHT22;14508;50.924;11.600;2023-07-29T06:47:52;22.40;99.90
26954;DHT22;14508;50.924;11.600;2023-07-29T06:50:21;22.50;99.90
26954;DHT22;14508;50.924;11.600;2023-07-29T06:52:49;22.60;99.90
26954;DHT22;14508;50.924;11.600;2023-07-29T06:55:17;22.70;99.90
26954;DHT22;14508;50.924;11.600;2023-07-29T06:57:45;22.70;99.90
26954;DHT22;14508;50.924;11.600;2023-07-29T07:00:14;22.70;99.90
26954;DHT22;14508;50.924;11.600;2023-07-29T07:02:42;22.60;99.90
26954;DHT22;14508;50.924;11.600;2023-07-29T07:05:10;22.50;99.90
26954;DHT22;14508;50.924;11.600;2023-07-29T07:07:40;22.50;99.90
26954;DHT22;14508;50.924;11.600;2023-07-29T07:10:08;22.40;99.90
26954;DHT22;14508;50.924;11.600;2023-07-29T07:12:36;22.40;99.90
26954;DHT22;14508;50.924;11.600;2023-07-29T07:15:05;22.30;99.90
26954;DHT22;14508;50.924;11.600;2023-07-29T07:17:33;22.30;99.90
26954;DHT22;14508;50.924;11.600;2023-07-29T07:20:01;22.30;99.90
26954;DHT22;14508;50.924;11.600;2023-07-29T07:22:29;22.30;99.90
26954;DHT22;14508;50.924;11.600;2023-07-29T07:24:59;22.30;99.90
26954;DHT22;14508;50.924;11.600;2023-07-29T07:27:27;22.30;99.90
26954;DHT22;14508;50.924;11.600;2023-07-29T07:29:54;22.30;99.90
26954;DHT22;14508;50.924;11.600;2023-07-29T07:32:23;22.40;99.90
26954;DHT22;14508;50.924;11.600;2023-07-29T07:34:51;22.40;99.90
26954;DHT22;14508;50.924;11.600;2023-07-29T07:37:18;22.50;99.90
26954;DHT22;14508;50.924;11.600;2023-07-29T07:39:47;22.50;99.90
26954;DHT22;14508;50.924;11.600;2023-07-29T07:42:16;22.60;99.90
26954;DHT22;14508;50.924;11.600;2023-07-29T07:44:44;22.70;99.90
26954;DHT22;14508;50.924;11.600;2023-07-29T07:47:12;22.90;99.90
26954;DHT22;14508;50.924;11.600;2023-07-29T07:49:40;23.10;99.90
26954;DHT22;14508;50.924;11.600;2023-07-29T07:52:08;23.20;99.90
26954;DHT22;14508;50.924;11.600;2023-07-29T07:54:36;23.30;99.90
26954;DHT22;14508;50.924;11.600;2023-07-29T07:57:04;23.40;99.90
26954;DHT22;14508;50.924;11.600;2023-07-29T07:59:34;23.50;99.90
26954;DHT22;14508;50.924;11.600;2023-07-29T08:02:02;23.50;99.90
26954;DHT22;14508;50.924;11.600;2023-07-29T08:04:30;23.50;99.90
26954;DHT22;14508;50.924;11.600;2023-07-29T08:06:58;23.50;99.90
26954;DHT22;14508;50.924;11.600;2023-07-29T08:09:26;23.60;99.90
26954;DHT22;14508;50.924;11.600;2023-07-29T08:11:54;23.70;99.90
26954;DHT22;14508;50.924;11.600;2023-07-29T08:14:22;23.80;99.90
26954;DHT22;14508;50.924;11.600;2023-07-29T08:16:51;23.90;99.90
26954;DHT22;14508;50.924;11.600;2023-07-29T08:19:19;24.10;99.90
26954;DHT22;14508;50.924;11.600;2023-07-29T08:21:48;24.20;99.90
26954;DHT22;14508;50.924;11.600;2023-07-29T08:24:16;24.20;99.90
26954;DHT22;14508;50.924;11.600;2023-07-29T08:26:44;24.30;99.90
26954;DHT22;14508;50.924;11.600;2023-07-29T08:29:13;24.30;99.90
26954;DHT22;14508;50.924;11.600;2023-07-29T08:31:41;24.30;99.90
26954;DHT22;14508;50.924;11.600;2023-07-29T08:34:10;24.30;99.90
26954;DHT22;14508;50.924;11.600;2023-07-29T08:36:38;24.20;99.90
26954;DHT22;14508;50.924;11.600;2023-07-29T08:39:06;24.20;99.90
26954;DHT22;14508;50.924;11.600;2023-07-29T08:41:39;24.20;99.90
26954;DHT22;14508;50.924;11.600;2023-07-29T08:44:12;24.30;99.90
26954;DHT22;14508;50.924;11.600;2023-07-29T08:46:44;24.30;99.90
26954;DHT22;14508;50.924;11.600;2023-07-29T08:49:14;24.20;99.90
26954;DHT22;14508;50.924;11.600;2023-07-29T08:51:46;24.20;99.90
26954;DHT22;14508;50.924;11.600;2023-07-29T08:54:15;24.10;99.90
26954;DHT22;14508;50.924;11.600;2023-07-29T08:56:43;24.10;99.90
26954;DHT22;14508;50.924;11.600;2023-07-29T08:59:13;24.10;99.90
26954;DHT22;14508;50.924;11.600;2023-07-29T09:01:43;24.20;99.50
26954;DHT22;14508;50.924;11.600;2023-07-29T09:04:12;24.20;98.90
26954;DHT22;14508;50.924;11.600;2023-07-29T09:06:43;24.20;98.90
26954;DHT22;14508;50.924;11.600;2023-07-29T09:09:12;24.30;99.10
26954;DHT22;14508;50.924;11.600;2023-07-29T09:11:40;24.30;98.70
26954;DHT22;14508;50.924;11.600;2023-07-29T09:14:08;24.30;98.20
26954;DHT22;14508;50.924;11.600;2023-07-29T09:16:37;24.10;98.00
26954;DHT22;14508;50.924;11.600;2023-07-29T09:19:06;24.10;98.60
26954;DHT22;14508;50.924;11.600;2023-07-29T09:21:38;24.00;98.60
26954;DHT22;14508;50.924;11.600;2023-07-29T09:24:07;24.00;98.40
26954;DHT22;14508;50.924;11.600;2023-07-29T09:26:35;23.90;98.80
26954;DHT22;14508;50.924;11.600;2023-07-29T09:29:04;23.80;98.60
26954;DHT22;14508;50.924;11.600;2023-07-29T09:31:32;23.70;99.20
26954;DHT22;14508;50.924;11.600;2023-07-29T09:34:02;23.70;99.70
26954;DHT22;14508;50.924;11.600;2023-07-29T09:36:32;23.70;99.90
26954;DHT22;14508;50.924;11.600;2023-07-29T09:39:02;23.70;99.90
26954;DHT22;14508;50.924;11.600;2023-07-29T09:41:31;23.70;99.90
26954;DHT22;14508;50.924;11.600;2023-07-29T09:44:00;23.80;99.90
26954;DHT22;14508;50.924;11.600;2023-07-29T09:46:32;23.80;99.90
26954;DHT22;14508;50.924;11.600;2023-07-29T09:49:03;23.80;99.90
26954;DHT22;14508;50.924;11.600;2023-07-29T09:51:32;23.80;99.90
26954;DHT22;14508;50.924;11.600;2023-07-29T09:54:05;23.80;99.90
26954;DHT22;14508;50.924;11.600;2023-07-29T09:56:39;23.90;99.50
26954;DHT22;14508;50.924;11.600;2023-07-29T09:59:08;24.00;99.10
26954;DHT22;14508;50.924;11.600;2023-07-29T10:01:37;24.10;98.70
26954;DHT22;14508;50.924;11.600;2023-07-29T10:04:06;24.20;98.80
26954;DHT22;14508;50.924;11.600;2023-07-29T10:06:38;24.30;98.20
26954;DHT22;14508;50.924;11.600;2023-07-29T10:09:11;24.40;97.30
26954;DHT22;14508;50.924;11.600;2023-07-29T10:11:40;24.50;97.00
26954;DHT22;14508;50.924;11.600;2023-07-29T10:14:08;24.60;96.80
26954;DHT22;14508;50.924;11.600;2023-07-29T10:16:36;24.70;96.20
26954;DHT22;14508;50.924;11.600;2023-07-29T10:19:07;24.80;96.00
26954;DHT22;14508;50.924;11.600;2023-07-29T10:21:38;24.90;94.80
26954;DHT22;14508;50.924;11.600;2023-07-29T10:24:14;24.80;94.50
26954;DHT22;14508;50.924;11.600;2023-07-29T10:26:45;24.80;94.50
26954;DHT22;14508;50.924;11.600;2023-07-29T10:29:14;24.80;94.80
26954;DHT22;14508;50.924;11.600;2023-07-29T10:31:47;24.70;94.60
26954;DHT22;14508;50.924;11.600;2023-07-29T10:34:15;24.70;95.00
26954;DHT22;14508;50.924;11.600;2023-07-29T10:36:43;24.50;95.10
26954;DHT22;14508;50.924;11.600;2023-07-29T10:39:12;24.40;95.00
26954;DHT22;14508;50.924;11.600;2023-07-29T10:41:59;24.20;95.70
26954;DHT22;14508;50.924;11.600;2023-07-29T10:44:49;24.10;97.00
26954;DHT22;14508;50.924;11.600;2023-07-29T10:47:19;24.00;99.20
26954;DHT22;14508;50.924;11.600;2023-07-29T10:49:50;23.90;99.90
26954;DHT22;14508;50.924;11.600;2023-07-29T10:52:29;23.90;99.90
26954;DHT22;14508;50.924;11.600;2023-07-29T10:54:59;23.90;99.90
26954;DHT22;14508;50.924;11.600;2023-07-29T10:57:32;24.00;99.90
26954;DHT22;14508;50.924;11.600;2023-07-29T11:00:01;24.10;99.90
26954;DHT22;14508;50.924;11.600;2023-07-29T11:02:30;24.20;99.90
26954;DHT22;14508;50.924;11.600;2023-07-29T11:05:04;24.30;99.90
26954;DHT22;14508;50.924;11.600;2023-07-29T11:07:43;24.30;99.90
26954;DHT22;14508;50.924;11.600;2023-07-29T11:10:13;24.40;99.90
26954;DHT22;14508;50.924;11.600;2023-07-29T11:12:43;24.70;99.90
26954;DHT22;14508;50.924;11.600;2023-07-29T11:15:23;24.90;99.90
26954;DHT22;14508;50.924;11.600;2023-07-29T11:17:52;25.20;99.90
26954;DHT22;14508;50.924;11.600;2023-07-29T11:20:22;25.50;98.70
26954;DHT22;14508;50.924;11.600;2023-07-29T11:22:50;25.70;97.30
26954;DHT22;14508;50.924;11.600;2023-07-29T11:25:21;25.60;95.00
26954;DHT22;14508;50.924;11.600;2023-07-29T11:27:52;25.50;95.30
26954;DHT22;14508;50.924;11.600;2023-07-29T11:30:20;25.50;95.10
26954;DHT22;14508;50.924;11.600;2023-07-29T11:32:50;25.40;95.20
26954;DHT22;14508;50.924;11.600;2023-07-29T11:35:18;25.40;94.90
26954;DHT22;14508;50.924;11.600;2023-07-29T11:37:48;25.50;93.90
26954;DHT22;14508;50.924;11.600;2023-07-29T11:40:18;25.60;92.60
26954;DHT22;14508;50.924;11.600;2023-07-29T11:42:48;25.60;91.90
26954;DHT22;14508;50.924;11.600;2023-07-29T11:45:18;25.50;90.50
26954;DHT22;14508;50.924;11.600;2023-07-29T11:47:46;25.60;90.10
26954;DHT22;14508;50.924;11.600;2023-07-29T11:50:15;25.60;88.70
26954;DHT22;14508;50.924;11.600;2023-07-29T11:52:45;25.50;84.50
26954;DHT22;14508;50.924;11.600;2023-07-29T11:55:14;25.40;84.60
26954;DHT22;14508;50.924;11.600;2023-07-29T11:57:43;25.40;84.90
26954;DHT22;14508;50.924;11.600;2023-07-29T12:00:13;25.40;83.60
26954;DHT22;14508;50.924;11.600;2023-07-29T12:02:45;25.40;81.50
26954;DHT22;14508;50.924;11.600;2023-07-29T12:05:14;25.40;80.30
26954;DHT22;14508;50.924;11.600;2023-07-29T12:07:44;25.40;81.00
26954;DHT22;14508;50.924;11.600;2023-07-29T12:10:12;25.40;80.70
26954;DHT22;14508;50.924;11.600;2023-07-29T12:12:44;25.40;80.50
26954;DHT22;14508;50.924;11.600;2023-07-29T12:15:23;25.30;81.60
26954;DHT22;14508;50.924;11.600;2023-07-29T12:17:53;25.30;81.80
26954;DHT22;14508;50.924;11.600;2023-07-29T12:20:24;25.40;81.10
26954;DHT22;14508;50.924;11.600;2023-07-29T12:22:53;25.60;79.30
26954;DHT22;14508;50.924;11.600;2023-07-29T12:25:22;25.80;77.80
26954;DHT22;14508;50.924;11.600;2023-07-29T12:27:50;25.80;74.10
26954;DHT22;14508;50.924;11.600;2023-07-29T12:30:21;25.80;73.60
26954;DHT22;14508;50.924;11.600;2023-07-29T12:32:50;25.80;72.00
26954;DHT22;14508;50.924;11.600;2023-07-29T12:35:18;25.90;70.40
26954;DHT22;14508;50.924;11.600;2023-07-29T12:37:46;26.00;70.60
26954;DHT22;14508;50.924;11.600;2023-07-29T12:40:24;26.20;70.60
26954;DHT22;14508;50.924;11.600;2023-07-29T12:42:53;26.50;68.40
26954;DHT22;14508;50.924;11.600;2023-07-29T12:45:23;26.60;66.40
26954;DHT22;14508;50.924;11.600;2023-07-29T12:47:53;26.60;64.80
26954;DHT22;14508;50.924;11.600;2023-07-29T12:50:21;26.70;62.40
26954;DHT22;14508;50.924;11.600;2023-07-29T12:52:49;26.90;62.60
26954;DHT22;14508;50.924;11.600;2023-07-29T12:55:17;27.10;62.00
26954;DHT22;14508;50.924;11.600;2023-07-29T12:57:49;27.40;60.60
26954;DHT22;14508;50.924;11.600;2023-07-29T13:00:18;27.50;59.20
26954;DHT22;14508;50.924;11.600;2023-07-29T13:02:47;27.40;58.90
26954;DHT22;14508;50.924;11.600;2023-07-29T13:05:15;27.40;58.80
26954;DHT22;14508;50.924;11.600;2023-07-29T13:07:43;27.20;58.60
26954;DHT22;14508;50.924;11.600;2023-07-29T13:10:12;27.20;58.80
26954;DHT22;14508;50.924;11.600;2023-07-29T13:12:40;27.20;59.30
26954;DHT22;14508;50.924;11.600;2023-07-29T13:15:09;27.20;59.30
26954;DHT22;14508;50.924;11.600;2023-07-29T13:17:37;27.40;59.50
26954;DHT22;14508;50.924;11.600;2023-07-29T13:20:08;27.50;58.60
26954;DHT22;14508;50.924;11.600;2023-07-29T13:22:36;27.50;57.70
26954;DHT22;14508;50.924;11.600;2023-07-29T13:25:04;27.30;57.90
26954;DHT22;14508;50.924;11.600;2023-07-29T13:27:32;27.20;58.80
26954;DHT22;14508;50.924;11.600;2023-07-29T13:30:00;27.10;59.00
26954;DHT22;14508;50.924;11.600;2023-07-29T13:32:28;27.20;59.80
26954;DHT22;14508;50.924;11.600;2023-07-29T13:34:56;27.50;58.90
26954;DHT22;14508;50.924;11.600;2023-07-29T13:37:26;27.70;58.00
26954;DHT22;14508;50.924;11.600;2023-07-29T13:39:54;27.70;57.20
26954;DHT22;14508;50.924;11.600;2023-07-29T13:42:22;27.60;57.10
26954;DHT22;14508;50.924;11.600;2023-07-29T13:44:50;27.50;57.90
26954;DHT22;14508;50.924;11.600;2023-07-29T13:47:18;27.40;58.20
26954;DHT22;14508;50.924;11.600;2023-07-29T13:49:46;27.30;58.20
26954;DHT22;14508;50.924;11.600;2023-07-29T13:52:14;27.30;58.80
26954;DHT22;14508;50.924;11.600;2023-07-29T13:54:43;27.30;57.80
26954;DHT22;14508;50.924;11.600;2023-07-29T13:57:11;27.20;57.70
26954;DHT22;14508;50.924;11.600;2023-07-29T13:59:39;27.00;57.70
26954;DHT22;14508;50.924;11.600;2023-07-29T14:02:07;26.80;57.70
26954;DHT22;14508;50.924;11.600;2023-07-29T14:04:35;26.60;58.20
26954;DHT22;14508;50.924;11.600;2023-07-29T14:07:04;26.30;58.60
26954;DHT22;14508;50.924;11.600;2023-07-29T14:09:32;26.10;59.10
26954;DHT22;14508;50.924;11.600;2023-07-29T14:12:02;25.90;59.60
26954;DHT22;14508;50.924;11.600;2023-07-29T14:14:30;25.80;60.40
26954;DHT22;14508;50.924;11.600;2023-07-29T14:16:58;25.60;60.90
26954;DHT22;14508;50.924;11.600;2023-07-29T14:19:25;25.50;60.90
26954;DHT22;14508;50.924;11.600;2023-07-29T14:21:53;25.30;60.70
26954;DHT22;14508;50.924;11.600;2023-07-29T14:24:22;25.20;61.40
26954;DHT22;14508;50.924;11.600;2023-07-29T14:26:50;25.00;62.40
26954;DHT22;14508;50.924;11.600;2023-07-29T14:29:19;24.80;62.80
26954;DHT22;14508;50.924;11.600;2023-07-29T14:31:47;24.70;63.90
26954;DHT22;14508;50.924;11.600;2023-07-29T14:34:15;24.50;64.90
26954;DHT22;14508;50.924;11.600;2023-07-29T14:36:44;24.40;67.10
26954;DHT22;14508;50.924;11.600;2023-07-29T14:39:12;24.20;69.60
26954;DHT22;14508;50.924;11.600;2023-07-29T14:41:40;24.00;71.70
26954;DHT22;14508;50.924;11.600;2023-07-29T14:44:08;23.80;75.00
26954;DHT22;14508;50.924;11.600;2023-07-29T14:46:37;23.50;81.70
26954;DHT22;14508;50.924;11.600;2023-07-29T14:49:05;23.10;90.80
26954;DHT22;14508;50.924;11.600;2023-07-29T14:51:34;22.40;93.70
26954;DHT22;14508;50.924;11.600;2023-07-29T14:54:02;21.70;99.90
26954;DHT22;14508;50.924;11.600;2023-07-29T14:56:30;21.20;99.90
26954;DHT22;14508;50.924;11.600;2023-07-29T14:58:58;20.70;99.90
26954;DHT22;14508;50.924;11.600;2023-07-29T15:01:26;20.50;99.90
26954;DHT22;14508;50.924;11.600;2023-07-29T15:03:55;20.30;99.90
26954;DHT22;14508;50.924;11.600;2023-07-29T15:06:23;20.20;99.90
26954;DHT22;14508;50.924;11.600;2023-07-29T15:08:51;20.10;99.90
26954;DHT22;14508;50.924;11.600;2023-07-29T15:11:19;20.10;99.90
26954;DHT22;14508;50.924;11.600;2023-07-29T15:13:47;20.30;99.90
26954;DHT22;14508;50.924;11.600;2023-07-29T15:16:15;20.50;99.90
26954;DHT22;14508;50.924;11.600;2023-07-29T15:18:43;20.90;99.90
26954;DHT22;14508;50.924;11.600;2023-07-29T15:21:13;21.20;99.90
26954;DHT22;14508;50.924;11.600;2023-07-29T15:23:41;21.40;99.90
26954;DHT22;14508;50.924;11.600;2023-07-29T15:26:09;21.60;99.90
26954;DHT22;14508;50.924;11.600;2023-07-29T15:28:37;21.60;99.90
26954;DHT22;14508;50.924;11.600;2023-07-29T15:31:05;21.70;99.90